sensor_id;sensor_type;location;lat;lon;timestamp;P1;durP1;ratioP1;P2;durP2;ratioP2
7181;SDS011;3632;42.724;23.298;2022-12-18T00:01:46;8.97;;;7.50;;
7181;SDS011;3632;42.724;23.298;2022-12-18T00:04:15;9.57;;;7.67;;
7181;SDS011;3632;42.724;23.298;2022-12-18T00:06:46;10.07;;;7.67;;
7181;SDS011;3632;42.724;23.298;2022-12-18T00:09:13;9.57;;;7.90;;
7181;SDS011;3632;42.724;23.298;2022-12-18T00:11:39;9.33;;;7.63;;
7181;SDS011;3632;42.724;23.298;2022-12-18T00:14:07;10.13;;;8.00;;
7181;SDS011;3632;42.724;23.298;2022-12-18T00:16:35;10.47;;;8.13;;
7181;SDS011;3632;42.724;23.298;2022-12-18T00:19:03;9.90;;;8.20;;
7181;SDS011;3632;42.724;23.298;2022-12-18T00:21:31;10.43;;;8.90;;
7181;SDS011;3632;42.724;23.298;2022-12-18T00:23:59;11.47;;;9.13;;
7181;SDS011;3632;42.724;23.298;2022-12-18T00:26:27;11.07;;;8.93;;
7181;SDS011;3632;42.724;23.298;2022-12-18T00:28:57;12.43;;;9.37;;
7181;SDS011;3632;42.724;23.298;2022-12-18T00:31:25;11.27;;;8.77;;
7181;SDS011;3632;42.724;23.298;2022-12-18T00:33:53;12.00;;;9.30;;
7181;SDS011;3632;42.724;23.298;2022-12-18T00:36:22;9.77;;;8.50;;
7181;SDS011;3632;42.724;23.298;2022-12-18T00:38:50;10.40;;;8.80;;
7181;SDS011;3632;42.724;23.298;2022-12-18T00:41:18;8.97;;;7.70;;
7181;SDS011;3632;42.724;23.298;2022-12-18T00:43:58;9.47;;;8.10;;
7181;SDS011;3632;42.724;23.298;2022-12-18T00:46:25;11.10;;;8.67;;
7181;SDS011;3632;42.724;23.298;2022-12-18T00:48:52;11.20;;;8.50;;
7181;SDS011;3632;42.724;23.298;2022-12-18T00:51:19;9.83;;;8.07;;
7181;SDS011;3632;42.724;23.298;2022-12-18T00:53:47;11.07;;;9.00;;
7181;SDS011;3632;42.724;23.298;2022-12-18T00:56:14;10.30;;;9.00;;
7181;SDS011;3632;42.724;23.298;2022-12-18T00:58:40;11.43;;;8.93;;
7181;SDS011;3632;42.724;23.298;2022-12-18T01:01:07;11.77;;;9.47;;
7181;SDS011;3632;42.724;23.298;2022-12-18T01:03:35;9.97;;;8.67;;
7181;SDS011;3632;42.724;23.298;2022-12-18T01:06:05;10.90;;;8.77;;
7181;SDS011;3632;42.724;23.298;2022-12-18T01:08:32;11.27;;;8.60;;
7181;SDS011;3632;42.724;23.298;2022-12-18T01:11:00;11.00;;;8.60;;
7181;SDS011;3632;42.724;23.298;2022-12-18T01:13:32;13.13;;;9.77;;
7181;SDS011;3632;42.724;23.298;2022-12-18T01:15:59;11.20;;;9.60;;
7181;SDS011;3632;42.724;23.298;2022-12-18T01:18:26;10.97;;;9.13;;
7181;SDS011;3632;42.724;23.298;2022-12-18T01:20:53;11.23;;;9.00;;
7181;SDS011;3632;42.724;23.298;2022-12-18T01:23:20;11.63;;;9.83;;
7181;SDS011;3632;42.724;23.298;2022-12-18T01:25:47;10.50;;;9.00;;
7181;SDS011;3632;42.724;23.298;2022-12-18T01:28:15;12.23;;;9.70;;
7181;SDS011;3632;42.724;23.298;2022-12-18T01:30:41;14.47;;;9.60;;
7181;SDS011;3632;42.724;23.298;2022-12-18T01:33:08;12.20;;;9.53;;
7181;SDS011;3632;42.724;23.298;2022-12-18T01:35:39;10.70;;;8.97;;
7181;SDS011;3632;42.724;23.298;2022-12-18T01:38:06;11.97;;;9.70;;
7181;SDS011;3632;42.724;23.298;2022-12-18T01:40:33;12.70;;;9.50;;
7181;SDS011;3632;42.724;23.298;2022-12-18T01:43:00;11.50;;;9.00;;
7181;SDS011;3632;42.724;23.298;2022-12-18T01:45:29;11.20;;;9.37;;
7181;SDS011;3632;42.724;23.298;2022-12-18T01:47:57;12.97;;;9.67;;
7181;SDS011;3632;42.724;23.298;2022-12-18T01:50:28;11.17;;;9.37;;
7181;SDS011;3632;42.724;23.298;2022-12-18T01:52:59;11.47;;;8.83;;
7181;SDS011;3632;42.724;23.298;2022-12-18T01:55:30;12.37;;;9.60;;
7181;SDS011;3632;42.724;23.298;2022-12-18T01:58:01;10.70;;;9.03;;
7181;SDS011;3632;42.724;23.298;2022-12-18T02:00:29;10.53;;;8.70;;
7181;SDS011;3632;42.724;23.298;2022-12-18T02:02:57;10.53;;;8.83;;
7181;SDS011;3632;42.724;23.298;2022-12-18T02:05:26;10.43;;;8.67;;
7181;SDS011;3632;42.724;23.298;2022-12-18T02:08:02;11.10;;;9.23;;
7181;SDS011;3632;42.724;23.298;2022-12-18T02:10:36;12.93;;;9.50;;
7181;SDS011;3632;42.724;23.298;2022-12-18T02:13:10;10.07;;;8.47;;
7181;SDS011;3632;42.724;23.298;2022-12-18T02:15:43;11.40;;;8.80;;
7181;SDS011;3632;42.724;23.298;2022-12-18T02:18:18;10.33;;;8.07;;
7181;SDS011;3632;42.724;23.298;2022-12-18T02:20:51;10.03;;;8.47;;
7181;SDS011;3632;42.724;23.298;2022-12-18T02:23:31;12.27;;;8.90;;
7181;SDS011;3632;42.724;23.298;2022-12-18T02:26:14;10.00;;;8.10;;
7181;SDS011;3632;42.724;23.298;2022-12-18T02:28:45;9.73;;;7.77;;
7181;SDS011;3632;42.724;23.298;2022-12-18T02:31:16;9.73;;;7.60;;
7181;SDS011;3632;42.724;23.298;2022-12-18T02:33:47;8.53;;;7.63;;
7181;SDS011;3632;42.724;23.298;2022-12-18T02:36:16;9.87;;;7.10;;
7181;SDS011;3632;42.724;23.298;2022-12-18T02:38:44;8.17;;;6.80;;
7181;SDS011;3632;42.724;23.298;2022-12-18T02:41:14;9.47;;;7.03;;
7181;SDS011;3632;42.724;23.298;2022-12-18T02:43:46;9.23;;;7.00;;
7181;SDS011;3632;42.724;23.298;2022-12-18T02:46:25;8.50;;;7.17;;
7181;SDS011;3632;42.724;23.298;2022-12-18T02:48:59;8.37;;;6.90;;
7181;SDS011;3632;42.724;23.298;2022-12-18T02:51:32;9.13;;;7.30;;
7181;SDS011;3632;42.724;23.298;2022-12-18T02:54:15;8.83;;;7.07;;
7181;SDS011;3632;42.724;23.298;2022-12-18T02:56:53;8.43;;;7.20;;
7181;SDS011;3632;42.724;23.298;2022-12-18T02:59:24;10.67;;;8.23;;
7181;SDS011;3632;42.724;23.298;2022-12-18T03:01:58;10.27;;;8.13;;
7181;SDS011;3632;42.724;23.298;2022-12-18T03:04:32;10.17;;;8.00;;
7181;SDS011;3632;42.724;23.298;2022-12-18T03:07:09;10.57;;;8.50;;
7181;SDS011;3632;42.724;23.298;2022-12-18T03:09:43;11.17;;;8.47;;
7181;SDS011;3632;42.724;23.298;2022-12-18T03:12:16;9.07;;;7.93;;
7181;SDS011;3632;42.724;23.298;2022-12-18T03:14:49;10.63;;;8.50;;
7181;SDS011;3632;42.724;23.298;2022-12-18T03:17:22;10.07;;;8.30;;
7181;SDS011;3632;42.724;23.298;2022-12-18T03:19:51;11.27;;;8.00;;
7181;SDS011;3632;42.724;23.298;2022-12-18T03:22:20;9.77;;;7.77;;
7181;SDS011;3632;42.724;23.298;2022-12-18T03:24:50;10.33;;;8.33;;
7181;SDS011;3632;42.724;23.298;2022-12-18T03:27:19;10.50;;;7.50;;
7181;SDS011;3632;42.724;23.298;2022-12-18T03:29:49;9.77;;;7.03;;
7181;SDS011;3632;42.724;23.298;2022-12-18T03:32:20;10.07;;;8.00;;
7181;SDS011;3632;42.724;23.298;2022-12-18T03:34:52;10.40;;;7.87;;
7181;SDS011;3632;42.724;23.298;2022-12-18T03:37:23;9.17;;;7.20;;
7181;SDS011;3632;42.724;23.298;2022-12-18T03:39:50;10.53;;;7.70;;
7181;SDS011;3632;42.724;23.298;2022-12-18T03:42:20;11.17;;;8.00;;
7181;SDS011;3632;42.724;23.298;2022-12-18T03:44:56;10.00;;;8.03;;
7181;SDS011;3632;42.724;23.298;2022-12-18T03:47:27;10.50;;;8.20;;
7181;SDS011;3632;42.724;23.298;2022-12-18T03:49:57;9.03;;;7.53;;
7181;SDS011;3632;42.724;23.298;2022-12-18T03:52:33;10.73;;;8.03;;
7181;SDS011;3632;42.724;23.298;2022-12-18T03:55:03;10.87;;;8.90;;
7181;SDS011;3632;42.724;23.298;2022-12-18T03:57:34;13.27;;;9.00;;
7181;SDS011;3632;42.724;23.298;2022-12-18T04:00:04;11.80;;;9.17;;
7181;SDS011;3632;42.724;23.298;2022-12-18T04:02:32;11.97;;;9.30;;
7181;SDS011;3632;42.724;23.298;2022-12-18T04:05:02;12.83;;;9.33;;
7181;SDS011;3632;42.724;23.298;2022-12-18T04:07:32;12.33;;;10.20;;
7181;SDS011;3632;42.724;23.298;2022-12-18T04:10:00;14.23;;;9.80;;
7181;SDS011;3632;42.724;23.298;2022-12-18T04:12:29;12.20;;;9.90;;
7181;SDS011;3632;42.724;23.298;2022-12-18T04:14:57;13.83;;;10.60;;
7181;SDS011;3632;42.724;23.298;2022-12-18T04:17:24;15.77;;;10.90;;
7181;SDS011;3632;42.724;23.298;2022-12-18T04:19:51;16.20;;;11.07;;
7181;SDS011;3632;42.724;23.298;2022-12-18T04:22:17;13.37;;;10.50;;
7181;SDS011;3632;42.724;23.298;2022-12-18T04:24:44;13.80;;;10.57;;
7181;SDS011;3632;42.724;23.298;2022-12-18T04:27:11;14.43;;;10.60;;
7181;SDS011;3632;42.724;23.298;2022-12-18T04:29:38;14.30;;;11.73;;
7181;SDS011;3632;42.724;23.298;2022-12-18T04:32:06;13.70;;;10.33;;
7181;SDS011;3632;42.724;23.298;2022-12-18T04:34:33;14.23;;;10.90;;
7181;SDS011;3632;42.724;23.298;2022-12-18T04:37:00;16.13;;;11.17;;
7181;SDS011;3632;42.724;23.298;2022-12-18T04:39:27;16.20;;;11.80;;
7181;SDS011;3632;42.724;23.298;2022-12-18T04:41:54;15.87;;;11.33;;
7181;SDS011;3632;42.724;23.298;2022-12-18T04:44:20;15.37;;;11.20;;
7181;SDS011;3632;42.724;23.298;2022-12-18T04:46:47;16.50;;;11.83;;
7181;SDS011;3632;42.724;23.298;2022-12-18T04:49:15;15.70;;;11.23;;
7181;SDS011;3632;42.724;23.298;2022-12-18T04:51:42;18.30;;;11.27;;
7181;SDS011;3632;42.724;23.298;2022-12-18T04:54:09;15.87;;;11.20;;
7181;SDS011;3632;42.724;23.298;2022-12-18T04:56:35;16.80;;;12.03;;
7181;SDS011;3632;42.724;23.298;2022-12-18T04:59:02;16.53;;;12.43;;
7181;SDS011;3632;42.724;23.298;2022-12-18T05:01:29;18.10;;;12.73;;
7181;SDS011;3632;42.724;23.298;2022-12-18T05:03:56;16.33;;;12.10;;
7181;SDS011;3632;42.724;23.298;2022-12-18T05:06:24;17.40;;;12.70;;
7181;SDS011;3632;42.724;23.298;2022-12-18T05:08:51;17.63;;;13.17;;
7181;SDS011;3632;42.724;23.298;2022-12-18T05:11:18;17.93;;;12.27;;
7181;SDS011;3632;42.724;23.298;2022-12-18T05:13:45;16.27;;;13.03;;
7181;SDS011;3632;42.724;23.298;2022-12-18T05:16:13;19.37;;;13.37;;
7181;SDS011;3632;42.724;23.298;2022-12-18T05:18:40;20.13;;;13.07;;
7181;SDS011;3632;42.724;23.298;2022-12-18T05:21:07;19.27;;;13.53;;
7181;SDS011;3632;42.724;23.298;2022-12-18T05:23:36;17.90;;;13.53;;
7181;SDS011;3632;42.724;23.298;2022-12-18T05:26:04;18.83;;;13.73;;
7181;SDS011;3632;42.724;23.298;2022-12-18T05:28:33;17.07;;;13.30;;
7181;SDS011;3632;42.724;23.298;2022-12-18T05:31:01;19.80;;;13.90;;
7181;SDS011;3632;42.724;23.298;2022-12-18T05:33:30;19.27;;;13.33;;
7181;SDS011;3632;42.724;23.298;2022-12-18T05:35:59;19.63;;;13.77;;
7181;SDS011;3632;42.724;23.298;2022-12-18T05:38:27;17.80;;;13.63;;
7181;SDS011;3632;42.724;23.298;2022-12-18T05:40:56;18.80;;;13.27;;
7181;SDS011;3632;42.724;23.298;2022-12-18T05:43:23;18.67;;;13.13;;
7181;SDS011;3632;42.724;23.298;2022-12-18T05:45:52;18.77;;;13.53;;
7181;SDS011;3632;42.724;23.298;2022-12-18T05:48:20;18.50;;;13.37;;
7181;SDS011;3632;42.724;23.298;2022-12-18T05:51:02;18.20;;;13.47;;
7181;SDS011;3632;42.724;23.298;2022-12-18T05:53:31;18.13;;;13.13;;
7181;SDS011;3632;42.724;23.298;2022-12-18T05:56:01;19.40;;;13.63;;
7181;SDS011;3632;42.724;23.298;2022-12-18T05:58:28;18.60;;;13.57;;
7181;SDS011;3632;42.724;23.298;2022-12-18T06:00:56;20.33;;;14.50;;
7181;SDS011;3632;42.724;23.298;2022-12-18T06:03:23;23.07;;;15.10;;
7181;SDS011;3632;42.724;23.298;2022-12-18T06:05:50;21.63;;;14.30;;
7181;SDS011;3632;42.724;23.298;2022-12-18T06:08:17;19.17;;;14.60;;
7181;SDS011;3632;42.724;23.298;2022-12-18T06:10:49;20.30;;;14.73;;
7181;SDS011;3632;42.724;23.298;2022-12-18T06:13:18;18.60;;;13.63;;
7181;SDS011;3632;42.724;23.298;2022-12-18T06:15:46;19.73;;;14.23;;
7181;SDS011;3632;42.724;23.298;2022-12-18T06:18:13;19.70;;;13.10;;
7181;SDS011;3632;42.724;23.298;2022-12-18T06:20:39;20.10;;;14.40;;
7181;SDS011;3632;42.724;23.298;2022-12-18T06:23:06;19.73;;;13.20;;
7181;SDS011;3632;42.724;23.298;2022-12-18T06:25:36;20.30;;;13.87;;
7181;SDS011;3632;42.724;23.298;2022-12-18T06:28:04;21.30;;;14.70;;
7181;SDS011;3632;42.724;23.298;2022-12-18T06:30:32;20.20;;;14.40;;
7181;SDS011;3632;42.724;23.298;2022-12-18T06:32:59;18.63;;;13.40;;
7181;SDS011;3632;42.724;23.298;2022-12-18T06:35:26;20.47;;;14.13;;
7181;SDS011;3632;42.724;23.298;2022-12-18T06:37:53;18.43;;;13.93;;
7181;SDS011;3632;42.724;23.298;2022-12-18T06:40:19;17.27;;;13.50;;
7181;SDS011;3632;42.724;23.298;2022-12-18T06:42:46;18.40;;;13.90;;
7181;SDS011;3632;42.724;23.298;2022-12-18T06:45:13;17.57;;;13.03;;
7181;SDS011;3632;42.724;23.298;2022-12-18T06:47:41;18.43;;;13.17;;
7181;SDS011;3632;42.724;23.298;2022-12-18T06:50:08;20.77;;;14.20;;
7181;SDS011;3632;42.724;23.298;2022-12-18T06:52:35;19.33;;;13.30;;
7181;SDS011;3632;42.724;23.298;2022-12-18T06:55:02;19.67;;;13.73;;
7181;SDS011;3632;42.724;23.298;2022-12-18T06:57:29;18.17;;;13.40;;
7181;SDS011;3632;42.724;23.298;2022-12-18T06:59:56;18.73;;;12.80;;
7181;SDS011;3632;42.724;23.298;2022-12-18T07:02:23;17.90;;;12.57;;
7181;SDS011;3632;42.724;23.298;2022-12-18T07:04:51;18.63;;;12.93;;
7181;SDS011;3632;42.724;23.298;2022-12-18T07:07:18;17.80;;;12.80;;
7181;SDS011;3632;42.724;23.298;2022-12-18T07:09:45;19.03;;;14.37;;
7181;SDS011;3632;42.724;23.298;2022-12-18T07:12:12;16.57;;;12.70;;
7181;SDS011;3632;42.724;23.298;2022-12-18T07:14:39;20.60;;;14.00;;
7181;SDS011;3632;42.724;23.298;2022-12-18T07:17:06;22.63;;;15.00;;
7181;SDS011;3632;42.724;23.298;2022-12-18T07:19:34;20.03;;;14.43;;
7181;SDS011;3632;42.724;23.298;2022-12-18T07:22:02;21.87;;;15.20;;
7181;SDS011;3632;42.724;23.298;2022-12-18T07:24:29;21.87;;;15.27;;
7181;SDS011;3632;42.724;23.298;2022-12-18T07:26:58;23.47;;;15.97;;
7181;SDS011;3632;42.724;23.298;2022-12-18T07:29:25;22.90;;;16.10;;
7181;SDS011;3632;42.724;23.298;2022-12-18T07:31:52;19.97;;;14.60;;
7181;SDS011;3632;42.724;23.298;2022-12-18T07:34:19;20.37;;;14.60;;
7181;SDS011;3632;42.724;23.298;2022-12-18T07:36:47;19.60;;;14.33;;
7181;SDS011;3632;42.724;23.298;2022-12-18T07:39:16;22.67;;;14.97;;
7181;SDS011;3632;42.724;23.298;2022-12-18T07:41:43;20.50;;;14.70;;
7181;SDS011;3632;42.724;23.298;2022-12-18T07:44:31;19.97;;;14.37;;
7181;SDS011;3632;42.724;23.298;2022-12-18T07:46:58;19.77;;;14.90;;
7181;SDS011;3632;42.724;23.298;2022-12-18T07:49:26;19.60;;;14.20;;
7181;SDS011;3632;42.724;23.298;2022-12-18T07:52:00;23.77;;;15.23;;
7181;SDS011;3632;42.724;23.298;2022-12-18T07:54:36;20.80;;;15.03;;
7181;SDS011;3632;42.724;23.298;2022-12-18T07:57:05;22.53;;;14.67;;
7181;SDS011;3632;42.724;23.298;2022-12-18T07:59:32;22.77;;;15.23;;
7181;SDS011;3632;42.724;23.298;2022-12-18T08:01:59;21.90;;;15.03;;
7181;SDS011;3632;42.724;23.298;2022-12-18T08:04:28;23.13;;;15.83;;
7181;SDS011;3632;42.724;23.298;2022-12-18T08:07:06;23.93;;;17.30;;
7181;SDS011;3632;42.724;23.298;2022-12-18T08:09:35;23.37;;;16.77;;
7181;SDS011;3632;42.724;23.298;2022-12-18T08:12:02;26.80;;;17.13;;
7181;SDS011;3632;42.724;23.298;2022-12-18T08:14:30;24.23;;;15.73;;
7181;SDS011;3632;42.724;23.298;2022-12-18T08:16:57;23.00;;;15.83;;
7181;SDS011;3632;42.724;23.298;2022-12-18T08:19:24;23.00;;;16.00;;
7181;SDS011;3632;42.724;23.298;2022-12-18T08:21:51;23.60;;;15.80;;
7181;SDS011;3632;42.724;23.298;2022-12-18T08:24:18;22.57;;;14.93;;
7181;SDS011;3632;42.724;23.298;2022-12-18T08:26:46;21.73;;;13.77;;
7181;SDS011;3632;42.724;23.298;2022-12-18T08:29:13;23.50;;;14.83;;
7181;SDS011;3632;42.724;23.298;2022-12-18T08:31:40;20.73;;;15.30;;
7181;SDS011;3632;42.724;23.298;2022-12-18T08:34:07;20.00;;;14.50;;
7181;SDS011;3632;42.724;23.298;2022-12-18T08:36:34;20.57;;;14.47;;
7181;SDS011;3632;42.724;23.298;2022-12-18T08:39:01;20.70;;;15.60;;
7181;SDS011;3632;42.724;23.298;2022-12-18T08:41:28;21.37;;;14.73;;
7181;SDS011;3632;42.724;23.298;2022-12-18T08:43:56;22.70;;;15.30;;
7181;SDS011;3632;42.724;23.298;2022-12-18T08:46:41;19.87;;;13.60;;
7181;SDS011;3632;42.724;23.298;2022-12-18T08:49:09;21.93;;;14.40;;
7181;SDS011;3632;42.724;23.298;2022-12-18T08:51:37;22.07;;;14.63;;
7181;SDS011;3632;42.724;23.298;2022-12-18T08:54:05;21.70;;;15.37;;
7181;SDS011;3632;42.724;23.298;2022-12-18T08:56:32;21.70;;;14.20;;
7181;SDS011;3632;42.724;23.298;2022-12-18T08:59:01;21.70;;;14.63;;
7181;SDS011;3632;42.724;23.298;2022-12-18T09:01:29;21.07;;;14.53;;
7181;SDS011;3632;42.724;23.298;2022-12-18T09:03:56;21.63;;;14.60;;
7181;SDS011;3632;42.724;23.298;2022-12-18T09:06:23;19.27;;;13.83;;
7181;SDS011;3632;42.724;23.298;2022-12-18T09:08:51;18.67;;;13.70;;
7181;SDS011;3632;42.724;23.298;2022-12-18T09:11:20;20.60;;;13.93;;
7181;SDS011;3632;42.724;23.298;2022-12-18T09:13:49;20.90;;;13.83;;
7181;SDS011;3632;42.724;23.298;2022-12-18T09:16:18;20.93;;;13.73;;
7181;SDS011;3632;42.724;23.298;2022-12-18T09:18:45;20.53;;;14.07;;
7181;SDS011;3632;42.724;23.298;2022-12-18T09:21:13;24.03;;;14.67;;
7181;SDS011;3632;42.724;23.298;2022-12-18T09:23:42;22.80;;;15.53;;
7181;SDS011;3632;42.724;23.298;2022-12-18T09:26:09;22.47;;;15.73;;
7181;SDS011;3632;42.724;23.298;2022-12-18T09:28:36;20.67;;;14.37;;
7181;SDS011;3632;42.724;23.298;2022-12-18T09:31:04;18.67;;;12.93;;
7181;SDS011;3632;42.724;23.298;2022-12-18T09:33:34;20.13;;;14.57;;
7181;SDS011;3632;42.724;23.298;2022-12-18T09:36:02;19.97;;;13.93;;
7181;SDS011;3632;42.724;23.298;2022-12-18T09:38:30;22.60;;;15.07;;
7181;SDS011;3632;42.724;23.298;2022-12-18T09:40:58;29.30;;;15.00;;
7181;SDS011;3632;42.724;23.298;2022-12-18T09:43:28;20.27;;;13.60;;
7181;SDS011;3632;42.724;23.298;2022-12-18T09:46:03;20.50;;;13.33;;
7181;SDS011;3632;42.724;23.298;2022-12-18T09:48:35;20.67;;;13.67;;
7181;SDS011;3632;42.724;23.298;2022-12-18T09:51:10;18.00;;;13.30;;
7181;SDS011;3632;42.724;23.298;2022-12-18T09:53:42;20.60;;;13.60;;
7181;SDS011;3632;42.724;23.298;2022-12-18T09:56:16;17.90;;;13.03;;
7181;SDS011;3632;42.724;23.298;2022-12-18T09:58:49;18.80;;;14.13;;
7181;SDS011;3632;42.724;23.298;2022-12-18T10:01:24;21.57;;;14.43;;
7181;SDS011;3632;42.724;23.298;2022-12-18T10:03:54;19.20;;;13.87;;
7181;SDS011;3632;42.724;23.298;2022-12-18T10:06:22;19.73;;;13.50;;
7181;SDS011;3632;42.724;23.298;2022-12-18T10:08:54;20.50;;;13.90;;
7181;SDS011;3632;42.724;23.298;2022-12-18T10:11:32;20.87;;;13.97;;
7181;SDS011;3632;42.724;23.298;2022-12-18T10:14:09;19.53;;;13.17;;
7181;SDS011;3632;42.724;23.298;2022-12-18T10:16:44;18.00;;;12.33;;
7181;SDS011;3632;42.724;23.298;2022-12-18T10:19:30;18.27;;;12.63;;
7181;SDS011;3632;42.724;23.298;2022-12-18T10:22:09;18.93;;;13.03;;
7181;SDS011;3632;42.724;23.298;2022-12-18T10:24:46;19.77;;;13.33;;
7181;SDS011;3632;42.724;23.298;2022-12-18T10:27:22;18.57;;;13.17;;
7181;SDS011;3632;42.724;23.298;2022-12-18T10:29:51;18.73;;;13.37;;
7181;SDS011;3632;42.724;23.298;2022-12-18T10:32:20;22.27;;;13.87;;
7181;SDS011;3632;42.724;23.298;2022-12-18T10:34:50;19.07;;;13.40;;
7181;SDS011;3632;42.724;23.298;2022-12-18T10:37:19;20.60;;;13.93;;
7181;SDS011;3632;42.724;23.298;2022-12-18T10:40:04;21.03;;;14.50;;
7181;SDS011;3632;42.724;23.298;2022-12-18T10:42:34;22.43;;;16.03;;
7181;SDS011;3632;42.724;23.298;2022-12-18T10:45:02;18.50;;;13.37;;
7181;SDS011;3632;42.724;23.298;2022-12-18T10:47:32;17.67;;;12.20;;
7181;SDS011;3632;42.724;23.298;2022-12-18T10:50:02;20.17;;;13.47;;
7181;SDS011;3632;42.724;23.298;2022-12-18T10:52:29;20.77;;;12.93;;
7181;SDS011;3632;42.724;23.298;2022-12-18T10:54:57;18.30;;;12.40;;
7181;SDS011;3632;42.724;23.298;2022-12-18T10:57:30;19.77;;;12.87;;
7181;SDS011;3632;42.724;23.298;2022-12-18T11:00:13;20.47;;;14.23;;
7181;SDS011;3632;42.724;23.298;2022-12-18T11:02:48;18.80;;;13.60;;
7181;SDS011;3632;42.724;23.298;2022-12-18T11:05:24;19.97;;;12.60;;
7181;SDS011;3632;42.724;23.298;2022-12-18T11:07:53;19.37;;;12.93;;
7181;SDS011;3632;42.724;23.298;2022-12-18T11:10:20;16.73;;;12.30;;
7181;SDS011;3632;42.724;23.298;2022-12-18T11:12:48;18.07;;;13.17;;
7181;SDS011;3632;42.724;23.298;2022-12-18T11:15:17;19.90;;;14.13;;
7181;SDS011;3632;42.724;23.298;2022-12-18T11:17:47;20.17;;;14.20;;
7181;SDS011;3632;42.724;23.298;2022-12-18T11:20:20;18.53;;;12.83;;
7181;SDS011;3632;42.724;23.298;2022-12-18T11:22:57;20.40;;;14.07;;
7181;SDS011;3632;42.724;23.298;2022-12-18T11:25:26;19.23;;;14.13;;
7181;SDS011;3632;42.724;23.298;2022-12-18T11:27:56;18.67;;;13.57;;
7181;SDS011;3632;42.724;23.298;2022-12-18T11:30:26;20.03;;;13.73;;
7181;SDS011;3632;42.724;23.298;2022-12-18T11:32:55;18.57;;;13.73;;
7181;SDS011;3632;42.724;23.298;2022-12-18T11:35:34;20.07;;;13.97;;
7181;SDS011;3632;42.724;23.298;2022-12-18T11:38:18;19.00;;;13.27;;
7181;SDS011;3632;42.724;23.298;2022-12-18T11:40:50;20.93;;;14.13;;
7181;SDS011;3632;42.724;23.298;2022-12-18T11:43:22;20.77;;;14.33;;
7181;SDS011;3632;42.724;23.298;2022-12-18T11:45:55;18.50;;;13.13;;
7181;SDS011;3632;42.724;23.298;2022-12-18T11:48:28;25.67;;;16.57;;
7181;SDS011;3632;42.724;23.298;2022-12-18T11:51:01;26.53;;;16.27;;
7181;SDS011;3632;42.724;23.298;2022-12-18T11:53:31;23.87;;;15.70;;
7181;SDS011;3632;42.724;23.298;2022-12-18T11:56:05;24.43;;;15.60;;
7181;SDS011;3632;42.724;23.298;2022-12-18T11:58:46;21.77;;;14.30;;
7181;SDS011;3632;42.724;23.298;2022-12-18T12:01:24;24.57;;;15.80;;
7181;SDS011;3632;42.724;23.298;2022-12-18T12:07:21;23.50;;;14.23;;
7181;SDS011;3632;42.724;23.298;2022-12-18T12:10:02;21.87;;;14.73;;
7181;SDS011;3632;42.724;23.298;2022-12-18T12:12:44;23.23;;;14.67;;
7181;SDS011;3632;42.724;23.298;2022-12-18T12:15:25;21.63;;;14.13;;
7181;SDS011;3632;42.724;23.298;2022-12-18T12:17:59;21.57;;;14.07;;
7181;SDS011;3632;42.724;23.298;2022-12-18T12:20:36;26.33;;;16.30;;
7181;SDS011;3632;42.724;23.298;2022-12-18T12:23:14;22.20;;;15.57;;
7181;SDS011;3632;42.724;23.298;2022-12-18T12:25:50;22.20;;;15.00;;
7181;SDS011;3632;42.724;23.298;2022-12-18T12:28:24;21.43;;;14.93;;
7181;SDS011;3632;42.724;23.298;2022-12-18T12:31:04;21.80;;;14.10;;
7181;SDS011;3632;42.724;23.298;2022-12-18T12:33:37;20.37;;;14.30;;
7181;SDS011;3632;42.724;23.298;2022-12-18T12:36:12;22.00;;;15.07;;
7181;SDS011;3632;42.724;23.298;2022-12-18T12:38:49;22.27;;;14.53;;
7181;SDS011;3632;42.724;23.298;2022-12-18T12:41:22;23.00;;;15.20;;
7181;SDS011;3632;42.724;23.298;2022-12-18T12:44:12;22.63;;;15.43;;
7181;SDS011;3632;42.724;23.298;2022-12-18T12:46:42;21.03;;;14.37;;
7181;SDS011;3632;42.724;23.298;2022-12-18T12:49:11;20.87;;;13.77;;
7181;SDS011;3632;42.724;23.298;2022-12-18T12:51:41;17.20;;;12.33;;
7181;SDS011;3632;42.724;23.298;2022-12-18T12:54:14;17.57;;;12.77;;
7181;SDS011;3632;42.724;23.298;2022-12-18T12:56:44;18.30;;;13.50;;
7181;SDS011;3632;42.724;23.298;2022-12-18T12:59:19;17.60;;;12.23;;
7181;SDS011;3632;42.724;23.298;2022-12-18T13:01:53;17.57;;;12.43;;
7181;SDS011;3632;42.724;23.298;2022-12-18T13:04:27;18.50;;;13.60;;
7181;SDS011;3632;42.724;23.298;2022-12-18T13:07:03;21.73;;;14.93;;
7181;SDS011;3632;42.724;23.298;2022-12-18T13:10:10;22.03;;;15.67;;
7181;SDS011;3632;42.724;23.298;2022-12-18T13:12:52;20.47;;;14.00;;
7181;SDS011;3632;42.724;23.298;2022-12-18T13:15:22;19.93;;;13.47;;
7181;SDS011;3632;42.724;23.298;2022-12-18T13:18:02;19.93;;;13.67;;
7181;SDS011;3632;42.724;23.298;2022-12-18T13:20:35;18.20;;;12.50;;
7181;SDS011;3632;42.724;23.298;2022-12-18T13:26:10;24.80;;;15.67;;
7181;SDS011;3632;42.724;23.298;2022-12-18T13:29:01;25.80;;;16.87;;
7181;SDS011;3632;42.724;23.298;2022-12-18T13:34:26;25.63;;;15.97;;
7181;SDS011;3632;42.724;23.298;2022-12-18T13:36:54;22.67;;;15.70;;
7181;SDS011;3632;42.724;23.298;2022-12-18T13:39:26;22.80;;;15.50;;
7181;SDS011;3632;42.724;23.298;2022-12-18T13:45:42;23.43;;;15.70;;
7181;SDS011;3632;42.724;23.298;2022-12-18T13:48:15;23.47;;;15.00;;
7181;SDS011;3632;42.724;23.298;2022-12-18T13:50:48;23.47;;;15.77;;
7181;SDS011;3632;42.724;23.298;2022-12-18T13:53:19;21.77;;;13.93;;
7181;SDS011;3632;42.724;23.298;2022-12-18T13:55:49;20.37;;;13.70;;
7181;SDS011;3632;42.724;23.298;2022-12-18T13:58:16;16.57;;;12.20;;
7181;SDS011;3632;42.724;23.298;2022-12-18T14:00:45;18.70;;;12.57;;
7181;SDS011;3632;42.724;23.298;2022-12-18T14:03:20;17.23;;;12.33;;
7181;SDS011;3632;42.724;23.298;2022-12-18T14:06:01;17.67;;;12.83;;
7181;SDS011;3632;42.724;23.298;2022-12-18T14:08:35;19.17;;;13.20;;
7181;SDS011;3632;42.724;23.298;2022-12-18T14:11:05;18.10;;;12.80;;
7181;SDS011;3632;42.724;23.298;2022-12-18T14:13:34;18.53;;;13.17;;
7181;SDS011;3632;42.724;23.298;2022-12-18T14:16:05;18.37;;;13.17;;
7181;SDS011;3632;42.724;23.298;2022-12-18T14:18:36;19.43;;;13.77;;
7181;SDS011;3632;42.724;23.298;2022-12-18T14:21:14;19.33;;;14.03;;
7181;SDS011;3632;42.724;23.298;2022-12-18T14:23:43;19.33;;;13.13;;
7181;SDS011;3632;42.724;23.298;2022-12-18T14:26:20;19.10;;;13.13;;
7181;SDS011;3632;42.724;23.298;2022-12-18T14:28:52;20.50;;;13.93;;
7181;SDS011;3632;42.724;23.298;2022-12-18T14:31:21;21.80;;;13.90;;
7181;SDS011;3632;42.724;23.298;2022-12-18T14:33:50;19.80;;;13.47;;
7181;SDS011;3632;42.724;23.298;2022-12-18T14:36:18;19.13;;;12.83;;
7181;SDS011;3632;42.724;23.298;2022-12-18T14:38:48;19.87;;;12.93;;
7181;SDS011;3632;42.724;23.298;2022-12-18T14:41:17;18.90;;;13.50;;
7181;SDS011;3632;42.724;23.298;2022-12-18T14:43:45;20.47;;;13.77;;
7181;SDS011;3632;42.724;23.298;2022-12-18T14:46:28;19.83;;;13.40;;
7181;SDS011;3632;42.724;23.298;2022-12-18T14:48:59;19.67;;;13.20;;
7181;SDS011;3632;42.724;23.298;2022-12-18T14:51:28;18.30;;;12.70;;
7181;SDS011;3632;42.724;23.298;2022-12-18T14:53:58;19.20;;;12.97;;
7181;SDS011;3632;42.724;23.298;2022-12-18T14:56:27;15.63;;;12.03;;
7181;SDS011;3632;42.724;23.298;2022-12-18T14:58:56;19.57;;;12.47;;
7181;SDS011;3632;42.724;23.298;2022-12-18T15:01:26;17.37;;;12.43;;
7181;SDS011;3632;42.724;23.298;2022-12-18T15:03:56;15.20;;;10.93;;
7181;SDS011;3632;42.724;23.298;2022-12-18T15:06:29;18.23;;;12.20;;
7181;SDS011;3632;42.724;23.298;2022-12-18T15:08:59;17.90;;;12.60;;
7181;SDS011;3632;42.724;23.298;2022-12-18T15:11:27;18.83;;;12.57;;